Time;durP1;ratioP1;P1;durP2;ratioP2;P2;SDS_P1;SDS_P2;PMS_P1;PMS_P2;Temp;Humidity;BMP_temperature;BMP_pressure;BME280_temperature;BME280_humidity;BME280_pressure;Samples;Min_cycle;Max_cycle;Signal;HPM_P1;HPM_P2
2023/10/12 00:01:57;;;;;;;18.10;8.83;;;;;;;-141.97;63.71;47551.75;5030254;28;20265;-85
2023/10/12 00:04:27;;;;;;;19.43;8.27;;;;;;;-141.97;63.70;47515.22;5028172;28;20178;-84
2023/10/12 00:06:53;;;;;;;16.47;8.00;;;;;;;-141.97;63.62;47601.72;5032817;28;20275;-84
2023/10/12 00:09:20;;;;;;;18.83;7.90;;;;;;;-141.97;63.83;47590.19;5032673;28;20174;-83
2023/10/12 00:14:35;;;;;;;16.33;8.10;;;;;;;-141.97;64.28;47603.66;4969266;28;20549;-83
2023/10/12 00:17:01;;;;;;;15.53;7.27;;;;;;;-141.97;64.34;47553.69;4970638;28;20314;-84
2023/10/12 00:19:26;;;;;;;13.90;7.63;;;;;;;-141.97;64.43;47580.59;4971445;28;20267;-85
2023/10/12 00:22:00;;;;;;;18.63;7.83;;;;;;;-141.97;64.43;47584.44;4971490;28;20578;-84
2023/10/12 00:24:26;;;;;;;14.27;7.83;;;;;;;-141.97;64.21;47582.50;4969207;28;20177;-85
2023/10/12 00:26:52;;;;;;;11.23;7.27;;;;;;;-141.97;64.77;47544.06;4971824;28;20200;-84
2023/10/12 00:29:18;;;;;;;14.30;7.40;;;;;;;-141.97;65.79;47547.91;4967689;28;20231;-84
2023/10/12 00:31:46;;;;;;;16.97;7.57;;;;;;;-141.97;66.11;47561.38;4974004;28;20192;-84
2023/10/12 00:34:12;;;;;;;15.43;7.63;;;;;;;-141.97;65.49;47522.91;4976231;28;20182;-83
2023/10/12 00:36:40;;;;;;;16.93;7.90;;;;;;;-141.97;65.27;47542.16;4974521;28;20200;-84
2023/10/12 00:39:10;;;;;;;12.50;7.00;;;;;;;-141.97;64.88;47561.38;4970908;28;20191;-84
2023/10/12 00:41:44;;;;;;;14.47;6.80;;;;;;;-141.97;65.32;47588.28;4970021;28;20176;-80
2023/10/12 00:44:12;;;;;;;16.13;7.20;;;;;;;-141.97;66.79;47540.22;4969901;28;20270;-80
2023/10/12 00:46:40;;;;;;;14.13;7.03;;;;;;;-141.97;67.68;47572.91;4969740;28;20191;-81
2023/10/12 00:51:49;;;;;;;15.30;7.90;;;;;;;-141.97;69.34;47557.53;5002342;28;20178;-81
2023/10/12 00:54:25;;;;;;;17.60;6.77;;;;;;;-141.97;69.09;47572.91;5031083;28;20264;-80
2023/10/12 00:56:56;;;;;;;17.37;7.07;;;;;;;-141.97;69.16;47574.81;5031288;28;20259;-81
2023/10/12 00:59:22;;;;;;;16.77;7.10;;;;;;;-141.97;69.46;47567.13;5030469;28;20189;-80
2023/10/12 01:01:51;;;;;;;12.83;7.10;;;;;;;-141.97;69.70;47569.06;5030526;28;20197;-80
2023/10/12 01:04:16;;;;;;;18.07;6.87;;;;;;;-141.97;69.31;47563.28;5030904;28;20224;-80
2023/10/12 01:06:44;;;;;;;18.47;7.50;;;;;;;-141.97;68.94;47570.97;5030664;28;20225;-82
2023/10/12 01:09:19;;;;;;;14.67;7.00;;;;;;;-141.97;69.33;47590.19;5031135;28;20174;-81
2023/10/12 01:11:57;;;;;;;22.93;7.50;;;;;;;-141.97;70.16;47584.44;5024463;28;20162;-81
2023/10/12 01:14:26;;;;;;;13.43;7.40;;;;;;;-141.97;70.68;47565.22;5030699;28;20176;-81
2023/10/12 01:16:58;;;;;;;16.97;8.10;;;;;;;-141.97;70.93;47624.78;5030674;28;20190;-80
2023/10/12 01:19:25;;;;;;;16.47;8.40;;;;;;;-141.97;70.38;47549.84;5030561;28;20158;-80
2023/10/12 01:22:13;;;;;;;13.87;7.30;;;;;;;-141.97;70.47;47570.97;5030148;28;20174;-81
2023/10/12 01:24:58;;;;;;;17.23;8.27;;;;;;;-141.97;70.19;47534.44;5041441;28;20209;-81
2023/10/12 01:27:25;;;;;;;17.20;7.80;;;;;;;-141.97;70.24;47546.00;5030138;28;20174;-80
2023/10/12 01:30:13;;;;;;;18.43;7.40;;;;;;;-141.97;70.00;47553.69;5012487;28;20728;-81
2023/10/12 01:32:38;;;;;;;15.17;8.00;;;;;;;-141.97;70.48;47534.44;5030169;28;20185;-80
2023/10/12 01:35:05;;;;;;;14.27;7.60;;;;;;;-141.97;71.12;47565.22;5030549;28;20178;-80
2023/10/12 01:37:41;;;;;;;13.53;7.60;;;;;;;-141.97;70.64;47597.88;5031746;28;20248;-80
2023/10/12 01:40:14;;;;;;;20.63;7.93;;;;;;;-141.97;69.99;47626.72;5036077;28;20216;-79
2023/10/12 01:45:31;;;;;;;18.17;8.23;;;;;;;-141.97;70.86;47557.53;5030113;28;20240;-79
2023/10/12 01:48:05;;;;;;;17.67;7.47;;;;;;;-141.97;70.93;47547.91;5030469;28;20189;-82
2023/10/12 01:50:33;;;;;;;14.60;8.13;;;;;;;-141.97;71.31;47584.44;5026777;28;20316;-81
2023/10/12 01:52:58;;;;;;;15.63;8.27;;;;;;;-141.97;71.40;47590.19;5030439;28;20178;-81
2023/10/12 01:55:31;;;;;;;16.63;8.53;;;;;;;-141.97;72.57;47569.06;5030682;28;20170;-81
2023/10/12 01:57:58;;;;;;;17.53;9.23;;;;;;;-141.97;72.81;47561.38;5029475;28;20208;-82
2023/10/12 02:00:42;;;;;;;20.87;8.83;;;;;;;-141.97;72.52;47572.91;5029535;28;20182;-80
2023/10/12 02:03:31;;;;;;;16.67;9.30;;;;;;;-141.97;72.49;47557.53;5028754;28;20428;-81
2023/10/12 02:06:13;;;;;;;17.27;8.53;;;;;;;-141.97;71.86;47630.56;5029806;28;20409;-82
2023/10/12 02:08:40;;;;;;;15.13;8.37;;;;;;;-141.97;71.69;47565.22;5030494;28;20221;-82
2023/10/12 02:11:26;;;;;;;17.30;8.37;;;;;;;-141.97;71.52;47574.81;5029161;28;20174;-82
2023/10/12 02:13:55;;;;;;;18.37;8.73;;;;;;;-141.97;70.90;47569.06;5020948;28;20556;-81
2023/10/12 02:16:52;;;;;;;17.57;8.97;;;;;;;-141.97;71.29;47561.38;5031181;28;20248;-82
2023/10/12 02:19:19;;;;;;;16.87;9.30;;;;;;;-141.97;71.08;47584.44;5028980;28;20622;-82
2023/10/12 02:21:46;;;;;;;18.30;10.30;;;;;;;-141.97;73.11;47580.59;5029437;28;20197;-82
2023/10/12 02:24:13;;;;;;;22.73;10.97;;;;;;;-141.97;73.90;47582.50;5034505;28;20626;-81
2023/10/12 02:26:52;;;;;;;20.47;10.77;;;;;;;-141.97;73.90;47565.22;5029429;28;20228;-83
2023/10/12 02:29:18;;;;;;;18.00;11.00;;;;;;;-141.97;73.88;47563.28;5012151;28;20219;-83
2023/10/12 02:34:16;;;;;;;21.93;11.13;;;;;;;-141.97;73.15;47584.44;5032223;28;20280;-83
2023/10/12 02:39:30;;;;;;;25.83;12.67;;;;;;;-141.97;71.88;47572.91;5030446;28;20181;-83
2023/10/12 02:47:21;;;;;;;24.63;10.43;;;;;;;-141.97;73.08;47572.91;5029874;28;20188;-83
2023/10/12 02:49:47;;;;;;;22.53;10.57;;;;;;;-141.97;73.28;47557.53;5019580;28;20241;-80
2023/10/12 02:52:14;;;;;;;21.13;11.20;;;;;;;-141.97;73.58;47580.59;5029247;28;20267;-80
2023/10/12 02:54:50;;;;;;;21.97;11.47;;;;;;;-141.97;73.45;47592.13;5012028;28;20181;-83
2023/10/12 02:57:28;;;;;;;22.13;10.50;;;;;;;-141.97;72.25;47572.91;5029042;28;20748;-83
2023/10/12 03:00:12;;;;;;;18.37;11.03;;;;;;;-141.97;72.34;47595.97;5028991;28;20209;-82
2023/10/12 03:02:45;;;;;;;18.27;10.70;;;;;;;-141.97;72.09;47522.91;5019052;28;20181;-81
2023/10/12 03:05:17;;;;;;;17.67;10.93;;;;;;;-141.97;72.95;47572.91;5029312;28;20177;-78
2023/10/12 03:07:44;;;;;;;21.90;10.90;;;;;;;-141.97;73.41;47570.97;5029004;28;20228;-79
2023/10/12 03:13:04;;;;;;;21.87;11.33;;;;;;;-141.97;74.16;47569.06;4988209;28;20226;-79
2023/10/12 03:15:43;;;;;;;23.07;11.10;;;;;;;-141.97;75.13;47536.38;4990311;28;20191;-79
2023/10/12 03:18:11;;;;;;;20.73;10.63;;;;;;;-141.97;75.45;47586.34;4990275;28;20223;-80
2023/10/12 03:20:38;;;;;;;20.53;10.90;;;;;;;-141.97;76.76;47546.00;4991331;28;20517;-80
2023/10/12 03:23:13;;;;;;;21.93;11.90;;;;;;;-141.97;76.45;47557.53;4976852;28;20535;-79
2023/10/12 03:25:46;;;;;;;23.47;12.17;;;;;;;-141.97;76.84;47569.06;4990561;28;20234;-78
2023/10/12 03:28:30;;;;;;;23.00;11.17;;;;;;;-141.97;77.24;47580.59;4990594;28;20427;-79
2023/10/12 03:31:14;;;;;;;22.93;11.37;;;;;;;-141.97;76.93;47557.53;4990973;28;20318;-79
2023/10/12 03:33:44;;;;;;;24.33;11.93;;;;;;;-141.97;78.10;47580.59;4990047;28;20628;-80
2023/10/12 03:36:22;;;;;;;22.03;12.00;;;;;;;-141.97;78.04;47561.38;4974210;28;20508;-80
2023/10/12 03:41:46;;;;;;;21.23;11.97;;;;;;;-141.97;78.27;47542.16;4990733;28;20445;-80
2023/10/12 03:44:18;;;;;;;21.97;12.13;;;;;;;-141.97;77.70;47569.06;4990789;28;20454;-79
2023/10/12 03:46:59;;;;;;;23.53;11.73;;;;;;;-141.97;78.42;47584.44;4992606;28;20429;-80
2023/10/12 03:51:58;;;;;;;22.40;11.23;;;;;;;-141.97;77.93;47605.56;5013420;28;20409;-78
2023/10/12 03:54:31;;;;;;;23.87;11.50;;;;;;;-141.97;77.34;47565.22;5013638;28;20502;-81
2023/10/12 03:59:44;;;;;;;24.77;11.90;;;;;;;-141.97;77.22;47588.28;5013267;28;20401;-80
2023/10/12 04:02:15;;;;;;;22.47;11.40;;;;;;;-141.97;77.21;47505.63;5029674;28;20409;-79
2023/10/12 04:07:45;;;;;;;24.07;11.10;;;;;;;-141.97;76.80;47549.84;4990320;28;20474;-82
2023/10/12 04:10:15;;;;;;;22.60;11.17;;;;;;;-141.97;76.36;47569.06;4996649;28;20434;-82
2023/10/12 04:13:06;;;;;;;22.67;11.57;;;;;;;-141.97;76.95;47544.06;4990263;28;20442;-83
2023/10/12 04:15:37;;;;;;;24.33;12.03;;;;;;;-141.97;77.45;47597.88;4993048;28;20454;-83
2023/10/12 04:18:07;;;;;;;24.33;12.47;;;;;;;-141.97;76.93;47555.59;4989926;28;20481;-83
2023/10/12 04:20:33;;;;;;;24.57;13.33;;;;;;;-141.97;77.19;47578.66;4990633;28;20554;-83
2023/10/12 04:25:49;;;;;;;22.13;12.07;;;;;;;-141.97;76.11;47594.03;4950716;28;20546;-84
2023/10/12 04:28:18;;;;;;;23.83;11.47;;;;;;;-141.97;76.08;47586.34;4951256;29;20436;-83
2023/10/12 04:33:27;;;;;;;21.93;11.10;;;;;;;-141.97;77.74;47557.53;4951043;29;20446;-83
2023/10/12 04:36:09;;;;;;;20.53;11.73;;;;;;;-141.97;78.14;47536.38;4951477;28;20412;-83
2023/10/12 04:43:53;;;;;;;22.70;11.80;;;;;;;-141.97;79.89;47611.34;4959916;28;20441;-83
2023/10/12 04:49:03;;;;;;;22.03;12.10;;;;;;;-141.97;79.63;47567.13;4979084;28;20435;-84
2023/10/12 04:51:30;;;;;;;19.07;10.30;;;;;;;-141.97;80.13;47588.28;4989988;28;20995;-83
2023/10/12 04:57:11;;;;;;;22.43;11.97;;;;;;;-141.97;80.13;47569.06;4970193;28;20471;-83
2023/10/12 04:59:50;;;;;;;216.63;52.67;;;;;;;-141.97;80.13;47592.13;4950749;29;20447;-82
2023/10/12 05:09:51;;;;;;;20.70;10.97;;;;;;;-141.97;78.74;47584.44;4951207;28;20262;-84
2023/10/12 05:12:25;;;;;;;48.97;16.97;;;;;;;-141.97;78.31;47590.19;4955115;28;20424;-81
2023/10/12 05:15:01;;;;;;;21.60;12.30;;;;;;;-141.97;78.03;47570.97;4970464;28;20506;-84
2023/10/12 05:17:27;;;;;;;27.80;11.20;;;;;;;-141.97;78.39;47576.75;4965199;28;20587;-83
2023/10/12 05:19:53;;;;;;;19.97;11.33;;;;;;;-141.97;78.07;47599.81;4950797;28;20499;-83
2023/10/12 05:22:21;;;;;;;19.40;10.50;;;;;;;-141.97;78.59;47599.81;4953132;28;20412;-83
2023/10/12 05:24:47;;;;;;;21.20;10.93;;;;;;;-141.97;77.99;47572.91;4969642;28;20688;-82
2023/10/12 05:30:16;;;;;;;22.03;10.90;;;;;;;-141.97;77.06;47582.50;4950627;29;20200;-83
2023/10/12 05:32:48;;;;;;;18.10;10.87;;;;;;;-141.97;76.93;47601.72;4950439;28;20755;-82
2023/10/12 05:35:16;;;;;;;17.67;10.13;;;;;;;-141.97;76.40;47524.84;4979671;28;20442;-82
2023/10/12 05:37:49;;;;;;;17.60;11.03;;;;;;;-141.97;76.89;47553.69;4987607;28;20470;-84
2023/10/12 05:40:16;;;;;;;16.50;9.27;;;;;;;-141.97;77.07;47607.50;4988976;28;20442;-83
2023/10/12 05:42:45;;;;;;;20.80;10.90;;;;;;;-141.97;77.57;47570.97;4988586;28;20461;-84
2023/10/12 05:45:27;;;;;;;21.20;11.33;;;;;;;-141.97;76.32;47555.59;4988648;28;20446;-83
2023/10/12 05:47:53;;;;;;;26.23;14.00;;;;;;;-141.97;74.89;47565.22;4988042;28;20602;-83
2023/10/12 05:50:24;;;;;;;21.10;11.37;;;;;;;-141.97;74.75;47546.00;4979446;28;20573;-84
2023/10/12 05:52:53;;;;;;;23.17;13.53;;;;;;;-141.97;73.72;47570.97;4991857;28;20253;-83
2023/10/12 05:55:22;;;;;;;27.50;13.13;;;;;;;-141.97;73.20;47555.59;4992760;28;20253;-84
2023/10/12 05:57:48;;;;;;;34.27;15.50;;;;;;;-141.97;72.70;47565.22;4971886;28;20195;-86
2023/10/12 06:00:34;;;;;;;29.13;14.10;;;;;;;-141.97;71.88;47578.66;4993542;28;20183;-84
2023/10/12 06:02:59;;;;;;;22.27;11.80;;;;;;;-141.97;71.67;47569.06;5007819;28;20190;-83
2023/10/12 06:05:25;;;;;;;22.23;11.07;;;;;;;-141.97;71.52;47595.97;4979552;28;20217;-83
2023/10/12 06:08:00;;;;;;;16.93;9.40;;;;;;;-141.97;70.86;47569.06;5029740;28;20226;-83
2023/10/12 06:10:27;;;;;;;21.13;9.73;;;;;;;-141.97;71.06;47651.69;5028489;28;20186;-85
2023/10/12 06:12:53;;;;;;;20.50;10.07;;;;;;;-141.97;70.07;47534.44;5021767;28;20635;-84
2023/10/12 06:15:22;;;;;;;19.30;10.03;;;;;;;-141.97;69.05;47590.19;5010626;28;20190;-80
2023/10/12 06:17:51;;;;;;;18.73;10.10;;;;;;;-141.97;68.63;47555.59;5024651;28;20669;-82
2023/10/12 06:20:30;;;;;;;15.53;8.67;;;;;;;-141.97;67.80;47599.81;5030233;28;20190;-81
2023/10/12 06:23:05;;;;;;;14.63;9.37;;;;;;;-141.97;67.20;47588.28;5017523;28;20248;-81
2023/10/12 06:25:30;;;;;;;17.60;8.80;;;;;;;-141.97;66.33;47578.66;5050984;28;20169;-80
2023/10/12 06:27:56;;;;;;;21.13;8.97;;;;;;;-141.97;65.58;47569.06;5044864;28;20178;-81
2023/10/12 06:30:23;;;;;;;15.43;8.23;;;;;;;-141.97;64.66;47580.59;5030837;28;20752;-81
2023/10/12 06:32:49;;;;;;;12.50;7.70;;;;;;;-141.97;63.93;47501.78;5031068;28;20614;-82
2023/10/12 06:45:48;;;;;;;14.80;7.17;;;;;;;-141.97;61.49;47590.19;5033176;28;20180;-81
2023/10/12 06:51:03;;;;;;;12.03;7.00;;;;;;;-141.97;59.92;47563.28;5023905;28;20628;-80
2023/10/12 06:53:35;;;;;;;12.10;6.80;;;;;;;-141.97;59.13;47592.13;5031094;28;20189;-79
2023/10/12 07:01:51;;;;;;;10.17;6.33;;;;;;;-141.97;58.91;47563.28;5024791;28;20182;-80
2023/10/12 07:04:20;;;;;;;12.77;6.30;;;;;;;-141.97;57.54;47570.97;5033153;28;20207;-81
2023/10/12 07:06:57;;;;;;;11.57;6.90;;;;;;;-141.97;57.91;47584.44;5014749;28;20225;-82
2023/10/12 07:09:29;;;;;;;12.57;6.50;;;;;;;-141.97;58.13;47553.69;5028417;28;20190;-84
2023/10/12 07:11:54;;;;;;;9.73;6.73;;;;;;;-141.97;58.07;47630.56;5032917;28;20614;-81
2023/10/12 07:14:30;;;;;;;10.87;6.60;;;;;;;-141.97;58.09;47580.59;5032009;28;20186;-80
2023/10/12 07:16:57;;;;;;;11.70;6.93;;;;;;;-141.97;57.88;47590.19;5013238;28;20230;-81
2023/10/12 07:19:24;;;;;;;12.00;6.80;;;;;;;-141.97;58.70;47561.38;5021174;28;20178;-80
2023/10/12 07:21:53;;;;;;;10.37;6.47;;;;;;;-141.97;57.45;47601.72;5013263;28;20664;-80
2023/10/12 07:24:19;;;;;;;10.97;5.97;;;;;;;-141.97;57.05;47553.69;4995273;28;20175;-81
2023/10/12 07:26:48;;;;;;;11.73;5.80;;;;;;;-141.97;55.84;47555.59;5013184;28;20181;-80
2023/10/12 07:29:19;;;;;;;13.83;6.30;;;;;;;-141.97;56.88;47561.38;5026513;28;20174;-81
2023/10/12 07:31:48;;;;;;;9.67;5.93;;;;;;;-141.97;55.47;47559.44;5032811;28;20594;-81
2023/10/12 07:34:18;;;;;;;14.47;6.63;;;;;;;-141.97;54.25;47594.03;5032139;28;20190;-81
2023/10/12 07:36:46;;;;;;;12.40;6.70;;;;;;;-141.97;52.80;47572.91;5032707;28;20284;-82
2023/10/12 07:39:19;;;;;;;15.40;6.80;;;;;;;-141.97;52.16;47576.75;5032202;28;20198;-81
2023/10/12 07:42:05;;;;;;;45.73;22.90;;;;;;;-141.97;54.31;47586.34;5032279;28;20158;-81
2023/10/12 07:44:39;;;;;;;11.57;6.17;;;;;;;-141.97;52.53;47595.97;5017346;28;20181;-80
2023/10/12 07:47:13;;;;;;;13.10;6.83;;;;;;;-141.97;51.47;47597.88;5014962;28;20170;-80
2023/10/12 07:49:46;;;;;;;13.83;5.73;;;;;;;-141.97;51.32;47586.34;5019097;28;20228;-81
2023/10/12 07:57:13;;;;;;;9.10;5.20;;;;;;;-141.97;48.64;47563.28;5031720;28;20332;-81
2023/10/12 07:59:48;;;;;;;12.93;5.23;;;;;;;-141.97;49.93;47544.06;5004442;28;20498;-86
2023/10/12 08:02:15;;;;;;;9.47;5.10;;;;;;;-141.97;49.51;47561.38;4994962;28;20174;-80
2023/10/12 08:04:57;;;;;;;8.60;4.90;;;;;;;-141.97;49.96;47486.41;5019049;28;20296;-81
2023/10/12 08:07:26;;;;;;;10.73;5.00;;;;;;;-141.97;50.49;47569.06;5013859;28;20250;-79
2023/10/12 08:09:54;;;;;;;7.70;4.53;;;;;;;-141.97;48.87;47538.28;5031680;28;20290;-79
2023/10/12 08:12:26;;;;;;;8.27;4.57;;;;;;;-141.97;48.21;47561.38;5031529;28;20696;-80
2023/10/12 08:15:09;;;;;;;10.83;4.87;;;;;;;-141.97;47.20;47540.22;5031601;28;20662;-81
2023/10/12 08:17:35;;;;;;;18.07;5.10;;;;;;;-141.97;47.17;47538.28;5031053;28;20212;-81
2023/10/12 08:22:46;;;;;;;8.90;5.03;;;;;;;-141.97;45.81;47522.91;5011825;28;20245;-80
2023/10/12 08:25:14;;;;;;;10.13;4.90;;;;;;;-141.97;46.18;47553.69;5030381;28;20182;-79
2023/10/12 08:30:48;;;;;;;7.03;4.57;;;;;;;-141.97;45.74;47521.00;4950418;29;20220;-82
2023/10/12 08:33:14;;;;;;;8.27;4.90;;;;;;;-141.97;45.04;47501.78;4939993;29;20253;-83
2023/10/12 08:36:22;;;;;;;11.10;4.77;;;;;;;-141.97;44.08;47511.38;4951607;29;20201;-82
2023/10/12 08:38:40;;;;;;;8.00;5.00;;;;;;;-141.97;44.27;47521.00;4950770;28;20342;-83
2023/10/12 08:41:20;;;;;;;11.00;4.93;;;;;;;-141.97;45.49;47547.91;4951307;29;20680;-84
2023/10/12 08:43:52;;;;;;;10.63;5.17;;;;;;;-141.97;45.76;47536.38;4951197;29;20169;-82
2023/10/12 08:49:33;;;;;;;7.00;4.73;;;;;;;-141.97;43.37;47515.22;4917367;28;20291;-82
2023/10/12 08:52:07;;;;;;;8.13;4.60;;;;;;;-141.97;43.38;47519.06;4950638;29;20590;-83
2023/10/12 08:54:37;;;;;;;10.57;5.03;;;;;;;-141.97;43.75;47538.28;4951197;29;20188;-83
2023/10/12 08:57:35;;;;;;;8.93;4.53;;;;;;;-141.97;43.71;47553.69;4951469;29;20669;-84
2023/10/12 09:00:23;;;;;;;7.13;4.50;;;;;;;-141.97;42.84;47522.91;4912192;29;20194;-83
2023/10/12 09:03:14;;;;;;;8.60;4.60;;;;;;;-141.97;42.73;47480.63;4912617;29;20188;-83
2023/10/12 09:05:40;;;;;;;8.70;4.57;;;;;;;-141.97;42.15;47521.00;4915619;29;20202;-82
2023/10/12 09:10:58;;;;;;;10.87;4.90;;;;;;;-141.97;42.59;47532.53;4968839;28;20202;-82
2023/10/12 09:13:28;;;;;;;9.70;4.93;;;;;;;-141.97;41.89;47503.69;4969839;28;20751;-83
2023/10/12 09:15:59;;;;;;;11.07;5.07;;;;;;;-141.97;41.33;47507.53;4954747;28;20168;-83
2023/10/12 09:18:30;;;;;;;11.00;4.67;;;;;;;-141.97;41.36;47484.47;4968900;28;20220;-83
2023/10/12 09:23:46;;;;;;;8.37;4.47;;;;;;;-141.97;40.24;47532.53;4950970;28;20283;-82
2023/10/12 09:26:15;;;;;;;6.97;4.70;;;;;;;-141.97;39.92;47519.06;4951338;29;20173;-83
2023/10/12 09:31:14;;;;;;;9.43;4.57;;;;;;;-141.97;39.85;47524.84;4971160;28;20200;-81
2023/10/12 09:34:31;;;;;;;9.87;4.50;;;;;;;-141.97;39.83;47315.34;4964870;28;20181;-83
2023/10/12 09:36:44;;;;;;;6.90;4.67;;;;;;;-141.97;39.80;47476.78;4974214;28;20705;-82
2023/10/12 09:39:15;;;;;;;9.80;5.10;;;;;;;-141.97;39.58;47488.31;5010742;28;20703;-83
2023/10/12 09:44:37;;;;;;;9.30;4.77;;;;;;;-141.97;38.78;47482.56;5035051;28;20283;-83
2023/10/12 09:47:16;;;;;;;10.00;4.77;;;;;;;-141.97;38.93;47459.50;5050413;28;20184;-84
2023/10/12 09:49:54;;;;;;;7.43;4.80;;;;;;;-141.97;38.33;47490.25;5039754;28;20232;-83
2023/10/12 09:52:23;;;;;;;9.07;4.87;;;;;;;-141.97;37.87;47509.47;5049493;28;20193;-83
2023/10/12 09:54:57;;;;;;;11.13;4.93;;;;;;;-141.97;37.71;47453.72;5033226;28;20615;-82
2023/10/12 09:57:26;;;;;;;19.30;5.30;;;;;;;-141.97;38.04;47451.81;5034793;28;20209;-83
2023/10/12 10:00:27;;;;;;;9.33;4.67;;;;;;;-141.97;38.26;47497.94;5035032;28;20242;-82
2023/10/12 10:02:42;;;;;;;7.93;4.50;;;;;;;-141.97;38.19;47496.00;5033766;28;20209;-82
2023/10/12 10:07:57;;;;;;;8.30;4.43;;;;;;;-141.97;38.17;47492.16;5033787;28;20216;-82
2023/10/12 10:10:34;;;;;;;6.90;4.83;;;;;;;-141.97;37.90;47449.88;5050690;28;20177;-82
2023/10/12 10:13:10;;;;;;;7.23;4.70;;;;;;;-141.97;38.11;47476.78;5046317;28;20261;-82
2023/10/12 10:15:55;;;;;;;8.87;4.80;;;;;;;-141.97;39.11;47488.31;5030592;28;20162;-83
2023/10/12 10:18:25;;;;;;;13.97;5.67;;;;;;;-141.97;38.24;47446.03;5011690;28;20233;-83
2023/10/12 10:20:58;;;;;;;6.77;4.80;;;;;;;-141.97;38.13;47457.56;5029391;28;20661;-82
2023/10/12 10:23:24;;;;;;;8.93;4.90;;;;;;;-141.97;37.52;47499.84;5032279;28;20616;-83
2023/10/12 10:25:56;;;;;;;6.10;4.37;;;;;;;-141.97;37.80;47488.31;5034578;28;20257;-84
2023/10/12 10:28:32;;;;;;;10.00;4.80;;;;;;;-141.97;37.72;47505.63;5038912;28;20173;-82
2023/10/12 10:31:01;;;;;;;9.67;4.60;;;;;;;-141.97;37.77;47509.47;5035250;28;20161;-83
2023/10/12 10:33:28;;;;;;;8.00;5.00;;;;;;;-141.97;37.81;47484.47;5015674;28;20220;-82
2023/10/12 10:35:56;;;;;;;10.03;5.00;;;;;;;-141.97;37.86;47505.63;5033916;28;20715;-82
2023/10/12 10:38:34;;;;;;;6.00;4.30;;;;;;;-141.97;38.38;47505.63;5033943;28;20654;-83
2023/10/12 10:41:18;;;;;;;10.97;5.17;;;;;;;-141.97;38.26;47507.53;5033916;28;20273;-83
2023/10/12 10:43:44;;;;;;;8.30;4.80;;;;;;;-141.97;37.53;47494.09;5034171;28;20185;-83
2023/10/12 10:46:10;;;;;;;8.90;4.63;;;;;;;-141.97;37.53;47482.56;5038207;28;20170;-83
2023/10/12 10:48:38;;;;;;;9.23;4.63;;;;;;;-141.97;37.71;47461.41;5034818;28;20173;-83
2023/10/12 10:51:18;;;;;;;9.50;4.77;;;;;;;-141.97;37.79;47419.13;5023921;28;20229;-83
2023/10/12 10:53:51;;;;;;;12.13;4.70;;;;;;;-141.97;37.39;47373.00;5033179;28;20173;-83
2023/10/12 10:56:16;;;;;;;7.90;4.70;;;;;;;-141.97;37.33;47497.94;5033727;28;20471;-83
2023/10/12 10:58:46;;;;;;;10.43;4.73;;;;;;;-141.97;37.10;47394.16;5015835;28;20184;-83
2023/10/12 11:01:15;;;;;;;7.20;4.63;;;;;;;-141.97;37.31;47353.78;5034103;28;20177;-83
2023/10/12 11:03:40;;;;;;;8.83;5.10;;;;;;;-141.97;37.17;47499.84;5033525;28;20201;-83
2023/10/12 11:06:21;;;;;;;11.23;4.93;;;;;;;-141.97;37.66;47453.72;5033037;28;20201;-82
2023/10/12 11:09:09;;;;;;;9.10;4.87;;;;;;;-141.97;37.96;47488.31;4992888;28;20570;-83
2023/10/12 11:11:37;;;;;;;8.40;4.77;;;;;;;-141.97;37.70;47494.09;4993644;28;20250;-83
2023/10/12 11:14:08;;;;;;;12.33;5.27;;;;;;;-141.97;37.60;47503.69;4994015;28;20190;-83
2023/10/12 11:16:36;;;;;;;10.60;5.10;;;;;;;-141.97;37.85;47507.53;4993777;28;20659;-83
2023/10/12 11:19:03;;;;;;;7.13;4.90;;;;;;;-141.97;37.97;47496.00;4993737;28;20218;-83
2023/10/12 11:21:29;;;;;;;8.67;5.10;;;;;;;-141.97;38.54;47519.06;4993833;28;20226;-83
2023/10/12 11:24:03;;;;;;;10.07;5.50;;;;;;;-141.97;37.97;47522.91;4997043;28;20195;-82
2023/10/12 11:26:39;;;;;;;10.67;5.30;;;;;;;-141.97;37.68;47484.47;4991876;28;20182;-82
2023/10/12 11:29:11;;;;;;;10.97;5.87;;;;;;;-141.97;38.03;47490.25;4997958;28;20190;-81
2023/10/12 11:31:37;;;;;;;9.43;5.00;;;;;;;-141.97;37.67;47499.84;4997302;28;20171;-81
2023/10/12 11:34:11;;;;;;;12.33;5.30;;;;;;;-141.97;37.72;47503.69;4995277;28;20257;-82
2023/10/12 11:36:37;;;;;;;7.77;5.00;;;;;;;-141.97;37.62;47515.22;4993872;28;20294;-83
2023/10/12 11:39:19;;;;;;;7.13;5.40;;;;;;;-141.97;37.77;47499.84;4992360;28;20183;-83
2023/10/12 11:42:05;;;;;;;9.83;4.87;;;;;;;-141.97;38.03;47419.13;4993384;28;20178;-83
2023/10/12 11:44:42;;;;;;;15.63;5.00;;;;;;;-141.97;37.70;47465.25;4992957;28;20582;-83
2023/10/12 11:47:13;;;;;;;7.07;5.10;;;;;;;-141.97;37.77;47461.41;4993280;28;20167;-82
2023/10/12 11:49:57;;;;;;;7.50;4.90;;;;;;;-141.97;37.55;47536.38;4984100;28;20691;-82
2023/10/12 11:52:30;;;;;;;10.13;4.80;;;;;;;-141.97;37.25;47438.34;4993570;28;20172;-83
2023/10/12 11:55:07;;;;;;;8.73;4.90;;;;;;;-141.97;37.03;47534.44;4992748;28;20554;-83
2023/10/12 11:57:37;;;;;;;10.47;5.10;;;;;;;-141.97;36.90;47478.72;4992819;28;20649;-83
2023/10/12 12:00:07;;;;;;;7.45;5.20;;;;;;;-141.97;36.47;47492.16;5003528;28;20222;-83
2023/10/12 12:02:32;;;;;;;7.82;4.70;;;;;;;-141.97;35.63;47488.31;5013972;28;20161;-83
2023/10/12 12:04:58;;;;;;;8.55;5.05;;;;;;;-141.97;35.49;47436.44;5011300;28;20217;-83
2023/10/12 12:07:23;;;;;;;7.85;4.78;;;;;;;-141.97;34.84;47480.63;5013693;28;20321;-83
2023/10/12 12:09:52;;;;;;;10.52;5.05;;;;;;;-141.97;35.26;47492.16;5032026;28;20174;-83
2023/10/12 12:12:18;;;;;;;10.13;5.20;;;;;;;-141.97;34.78;47472.94;5031845;28;20173;-83
2023/10/12 12:14:46;;;;;;;8.48;4.55;;;;;;;-141.97;34.97;47453.72;5031855;28;20264;-88
2023/10/12 12:17:13;;;;;;;9.95;4.57;;;;;;;-141.97;35.20;47492.16;5014350;28;20215;-83
2023/10/12 12:19:41;;;;;;;9.98;4.60;;;;;;;-141.97;35.19;47471.03;5031098;28;20175;-83
2023/10/12 12:22:10;;;;;;;7.05;4.68;;;;;;;-141.97;35.16;47515.22;5031682;28;20197;-81
2023/10/12 12:24:41;;;;;;;13.85;4.65;;;;;;;-141.97;34.87;47484.47;5036247;28;20280;-81
2023/10/12 12:27:32;;;;;;;10.57;4.47;;;;;;;-141.97;35.17;47446.03;5030943;28;20258;-79
2023/10/12 12:29:54;;;;;;;12.65;4.53;;;;;;;-141.97;35.43;47490.25;5031513;28;20257;-80
2023/10/12 12:32:19;;;;;;;9.13;4.28;;;;;;;-141.97;35.25;47455.66;5031542;28;20172;-80
2023/10/12 12:34:47;;;;;;;11.27;4.88;;;;;;;-141.97;35.42;47503.69;5031864;28;20170;-80
2023/10/12 12:37:17;;;;;;;7.40;4.70;;;;;;;-141.97;35.10;47467.19;5033323;28;20330;-81
2023/10/12 12:39:43;;;;;;;5.80;4.40;;;;;;;-141.97;34.78;47469.09;5033357;28;20191;-81
2023/10/12 12:42:09;;;;;;;10.13;4.82;;;;;;;-141.97;34.81;47465.25;5031466;28;20616;-80
2023/10/12 12:44:35;;;;;;;6.57;4.78;;;;;;;-141.97;34.57;47472.94;5031160;28;20178;-80
2023/10/12 12:47:01;;;;;;;9.15;4.57;;;;;;;-141.97;34.91;47469.09;5030858;28;20202;-81
2023/10/12 12:49:29;;;;;;;9.80;5.00;;;;;;;-141.97;34.42;47474.88;5021134;28;20173;-80
2023/10/12 12:51:57;;;;;;;8.23;4.40;;;;;;;-141.97;34.73;47446.03;5031232;28;20169;-81
2023/10/12 12:54:24;;;;;;;11.07;4.70;;;;;;;-141.97;34.86;47490.25;5031132;28;20242;-81
2023/10/12 12:56:53;;;;;;;8.38;4.82;;;;;;;-141.97;35.04;47472.94;5030776;28;20197;-81
2023/10/12 12:59:21;;;;;;;6.60;4.88;;;;;;;-141.97;34.88;47461.41;5031193;28;20179;-80
2023/10/12 13:01:46;;;;;;;7.35;4.53;;;;;;;-141.97;34.12;47426.81;5013447;28;20694;-81
2023/10/12 13:04:14;;;;;;;9.02;4.55;;;;;;;-141.97;34.14;47446.03;5029779;28;20200;-81
2023/10/12 13:06:39;;;;;;;10.15;4.60;;;;;;;-141.97;33.87;47469.09;5030388;28;20227;-81
2023/10/12 13:09:05;;;;;;;6.85;4.38;;;;;;;-141.97;33.30;47476.78;5031085;28;20162;-80
2023/10/12 13:11:32;;;;;;;7.22;4.45;;;;;;;-141.97;33.08;47461.41;5041283;28;20173;-80
2023/10/12 13:13:57;;;;;;;13.38;5.22;;;;;;;-141.97;33.08;47465.25;5035196;28;20178;-82
2023/10/12 13:16:22;;;;;;;5.80;4.50;;;;;;;-141.97;32.18;47480.63;5032408;28;20177;-81